Time;durP1;ratioP1;P1;durP2;ratioP2;P2;SDS_P1;SDS_P2;PMS_P1;PMS_P2;Temp;Humidity;BMP_temperature;BMP_pressure;BME280_temperature;BME280_humidity;BME280_pressure;Samples;Min_cycle;Max_cycle;Signal;HPM_P1;HPM_P2
2021/12/02 00:01:42;;;;;;;3.17;1.83;;;4.70;99.90;;;2.94;100.00;99417.19;2566303;30;137398;-38
2021/12/02 00:04:10;;;;;;;6.78;2.15;;;4.70;99.90;;;2.97;100.00;99414.94;2568830;30;137332;-38
2021/12/02 00:06:38;;;;;;;11.43;2.20;;;4.70;99.90;;;3.01;100.00;99420.75;2569475;30;137173;-38
2021/12/02 00:09:05;;;;;;;;;;;4.70;99.90;;;3.04;100.00;99422.22;2568887;30;138033;-38
2021/12/02 00:11:33;;;;;;;9.43;2.30;;;4.70;99.90;;;3.04;100.00;99414.16;2570736;30;138225;-38
2021/12/02 00:14:07;;;;;;;6.18;2.05;;;4.80;99.90;;;3.09;100.00;99420.63;2570494;30;137061;-38
2021/12/02 00:16:40;;;;;;;6.63;1.92;;;4.80;99.90;;;3.06;100.00;99407.53;2567852;30;137715;-38
2021/12/02 00:22:01;;;;;;;3.95;1.92;;;4.80;99.90;;;3.04;100.00;99412.28;2569842;30;139021;-38
2021/12/02 00:24:37;;;;;;;6.00;2.17;;;4.80;99.90;;;3.06;100.00;99415.63;2568858;30;136785;-38
2021/12/02 00:27:09;;;;;;;11.77;2.65;;;4.80;99.90;;;3.07;100.00;99424.53;2568346;30;138276;-38
2021/12/02 00:29:41;;;;;;;7.47;2.40;;;4.80;99.90;;;3.10;100.00;99421.44;2569292;30;138912;-38
2021/12/02 00:32:10;;;;;;;6.97;2.67;;;4.80;99.90;;;3.08;100.00;99418.13;2566364;30;139636;-39
2021/12/02 00:34:45;;;;;;;6.60;2.70;;;4.80;99.90;;;3.17;100.00;99425.00;2568663;30;137254;-38
2021/12/02 00:37:13;;;;;;;6.65;2.60;;;4.80;99.90;;;3.19;100.00;99424.81;2569005;30;138464;-38
2021/12/02 00:39:40;;;;;;;;;;;4.90;99.90;;;3.17;100.00;99427.69;2569363;30;137314;-38
2021/12/02 00:42:09;;;;;;;6.70;2.50;;;4.90;99.90;;;3.19;100.00;99425.66;2567336;30;137532;-38
2021/12/02 00:44:38;;;;;;;8.15;2.80;;;4.90;99.90;;;3.23;100.00;99431.47;2569644;30;137400;-38
2021/12/02 00:47:08;;;;;;;7.32;3.00;;;4.90;99.90;;;3.25;100.00;99424.84;2568237;30;137373;-38
2021/12/02 00:49:35;;;;;;;9.18;3.28;;;5.00;99.90;;;3.25;100.00;99430.25;2568461;30;137360;-38
2021/12/02 00:52:04;;;;;;;9.13;2.97;;;5.00;99.90;;;3.28;100.00;99434.38;2569960;30;137565;-38
2021/12/02 00:54:32;;;;;;;8.63;3.08;;;5.00;99.90;;;3.36;100.00;99430.72;2568757;30;136821;-38
2021/12/02 00:57:03;;;;;;;11.70;3.30;;;5.00;99.90;;;3.34;100.00;99433.63;2568726;30;137786;-38
2021/12/02 00:59:32;;;;;;;5.70;2.55;;;5.00;99.90;;;3.40;100.00;99432.81;2570136;30;137156;-38
2021/12/02 01:02:00;;;;;;;9.30;3.20;;;5.10;99.90;;;3.41;100.00;99433.63;2568058;30;137866;-38
2021/12/02 01:04:27;;;;;;;7.72;3.53;;;5.10;99.90;;;3.38;100.00;99434.88;2571975;30;137181;-38
2021/12/02 01:06:55;;;;;;;9.20;3.17;;;5.10;99.90;;;3.34;100.00;99438.16;2568894;30;138361;-38
2021/12/02 01:09:23;;;;;;;10.25;3.22;;;5.10;99.90;;;3.31;100.00;99434.00;2569280;30;138412;-38
2021/12/02 01:11:54;;;;;;;7.88;3.05;;;5.10;99.90;;;3.38;100.00;99439.44;2568665;30;139242;-38
2021/12/02 01:14:22;;;;;;;7.38;2.60;;;5.10;99.90;;;3.38;100.00;99447.53;2569053;30;138113;-38
2021/12/02 01:16:50;;;;;;;6.40;2.45;;;5.10;99.90;;;3.36;100.00;99454.97;2567879;30;138315;-38
2021/12/02 01:19:18;;;;;;;7.53;3.00;;;5.10;99.90;;;3.37;100.00;99444.00;2569552;30;137136;-38
2021/12/02 01:21:48;;;;;;;6.55;2.80;;;5.10;99.90;;;3.36;100.00;99449.59;2570260;30;140259;-38
2021/12/02 01:24:19;;;;;;;7.30;2.47;;;5.10;99.90;;;3.38;100.00;99456.44;2568727;30;136864;-38
2021/12/02 01:26:52;;;;;;;5.95;2.25;;;5.10;99.90;;;3.39;100.00;99452.72;2569550;30;138934;-38
2021/12/02 01:29:24;;;;;;;7.75;2.40;;;5.10;99.90;;;3.40;100.00;99453.53;2571027;30;137826;-38
2021/12/02 01:31:58;;;;;;;7.50;2.28;;;5.10;99.90;;;3.45;100.00;99451.91;2568662;30;138377;-38
2021/12/02 01:34:27;;;;;;;5.82;1.90;;;5.10;99.90;;;3.44;100.00;99452.94;2568535;30;137695;-38
2021/12/02 01:36:55;;;;;;;8.82;2.30;;;5.20;99.90;;;3.48;100.00;99456.09;2568166;30;137342;-38
2021/12/02 01:39:28;;;;;;;8.30;2.30;;;5.20;99.90;;;3.49;100.00;99451.53;2571266;30;137501;-38
2021/12/02 01:41:58;;;;;;;6.35;2.50;;;5.20;99.90;;;3.53;100.00;99448.22;2570981;30;138947;-38
2021/12/02 01:44:28;;;;;;;6.88;2.38;;;5.20;99.90;;;3.52;100.00;99454.66;2569091;30;137531;-38
2021/12/02 01:47:01;;;;;;;9.07;2.42;;;5.20;99.90;;;3.52;100.00;99449.25;2567386;30;138322;-38
2021/12/02 01:49:36;;;;;;;7.15;2.30;;;5.20;99.90;;;3.48;100.00;99448.00;2571668;30;136852;-38
2021/12/02 01:52:09;;;;;;;10.18;2.60;;;5.20;99.90;;;3.51;100.00;99452.16;2570245;30;138360;-38
2021/12/02 01:54:45;;;;;;;7.28;2.20;;;5.20;99.90;;;3.52;100.00;99448.41;2571052;30;137319;-38
2021/12/02 01:57:39;;;;;;;7.30;2.10;;;5.20;99.90;;;3.51;100.00;99454.84;2569470;30;138281;-38
2021/12/02 02:00:15;;;;;;;5.35;2.10;;;5.20;99.90;;;3.51;100.00;99454.84;2567196;30;137072;-38
2021/12/02 02:02:43;;;;;;;7.47;2.50;;;5.20;99.90;;;3.51;100.00;99458.38;2569771;30;138368;-38
2021/12/02 02:05:13;;;;;;;;;;;5.20;99.90;;;3.47;100.00;99453.59;2571053;30;137664;-38
2021/12/02 02:07:52;;;;;;;;;;;5.20;99.90;;;3.44;100.00;99460.19;2570082;30;138428;-38
2021/12/02 02:10:20;;;;;;;6.43;2.08;;;5.20;99.90;;;3.47;100.00;99453.59;2567037;30;137153;-38
2021/12/02 02:12:48;;;;;;;6.60;2.58;;;5.20;99.90;;;3.50;100.00;99458.56;2569941;30;138914;-38
2021/12/02 02:15:16;;;;;;;6.03;2.08;;;5.20;99.90;;;3.44;100.00;99460.19;2570721;30;137500;-38
2021/12/02 02:18:08;;;;;;;;;;;5.20;99.90;;;3.47;100.00;99458.97;2569739;30;138286;-38
2021/12/02 02:20:41;;;;;;;6.20;2.10;;;5.20;99.90;;;3.48;100.00;99458.78;2569818;30;137163;-38
2021/12/02 02:23:12;;;;;;;4.75;2.13;;;5.20;99.90;;;3.49;100.00;99462.31;2570437;30;138247;-38
2021/12/02 02:25:42;;;;;;;7.55;2.08;;;5.20;99.90;;;3.51;100.00;99461.09;2570125;30;137620;-38
2021/12/02 02:28:10;;;;;;;6.72;2.25;;;5.20;99.90;;;3.49;100.00;99457.75;2570616;30;138322;-38
2021/12/02 02:30:38;;;;;;;6.47;1.85;;;5.20;99.90;;;3.43;100.00;99445.06;2568546;30;137390;-38
2021/12/02 02:33:07;;;;;;;8.55;2.40;;;5.20;99.90;;;3.36;100.00;99447.72;2568983;30;138125;-38
2021/12/02 02:35:35;;;;;;;6.95;1.67;;;5.10;99.90;;;3.38;100.00;99442.97;2571300;30;136746;-38
2021/12/02 02:38:04;;;;;;;;;;;5.10;99.90;;;3.35;100.00;99451.47;2570892;30;138993;-38
2021/12/02 02:40:32;;;;;;;7.07;1.90;;;5.10;99.90;;;3.31;100.00;99445.63;2568895;30;136885;-38
2021/12/02 02:43:07;;;;;;;6.53;1.58;;;5.00;99.90;;;3.30;100.00;99454.75;2570089;30;137280;-38
2021/12/02 02:45:36;;;;;;;8.07;1.65;;;5.00;99.90;;;3.27;100.00;99452.44;2569067;30;137452;-38
2021/12/02 02:48:05;;;;;;;4.80;1.98;;;5.00;99.90;;;3.22;100.00;99436.03;2569195;30;137558;-38
2021/12/02 02:50:33;;;;;;;7.80;1.70;;;5.00;99.90;;;3.22;100.00;99448.66;2569323;30;137176;-38
2021/12/02 02:53:15;;;;;;;;;;;5.00;99.90;;;3.19;100.00;99447.22;2569546;30;138156;-38
2021/12/02 02:55:59;;;;;;;4.68;1.50;;;4.90;99.90;;;3.13;100.00;99453.38;2571491;30;136953;-38
2021/12/02 02:58:35;;;;;;;6.03;1.65;;;4.90;99.90;;;3.16;100.00;99447.59;2570447;30;138672;-38
2021/12/02 03:01:30;;;;;;;5.70;1.58;;;4.90;99.90;;;3.16;100.00;99450.28;2569158;30;137338;-38
2021/12/02 03:04:10;;;;;;;5.38;1.30;;;4.90;99.90;;;3.16;100.00;99452.97;2571743;30;138134;-38
2021/12/02 03:07:19;;;;;;;4.68;1.20;;;4.90;99.90;;;3.11;100.00;99455.44;2567274;30;137388;-38
2021/12/02 03:12:15;;;;;;;3.88;1.35;;;4.90;99.90;;;3.19;100.00;99462.53;2569419;30;137299;-38
2021/12/02 03:17:13;;;;;;;3.30;1.30;;;4.90;99.90;;;3.11;100.00;99447.34;2566052;30;137052;-40
2021/12/02 03:19:47;;;;;;;2.25;1.10;;;4.80;99.90;;;3.10;100.00;99451.94;2568563;30;138175;-40
2021/12/02 03:22:16;;;;;;;8.65;1.27;;;4.80;99.90;;;3.04;100.00;99444.63;2566184;30;137261;-40
2021/12/02 03:24:44;;;;;;;4.97;1.20;;;4.80;99.90;;;2.97;100.00;99447.28;2565957;30;139365;-40
2021/12/02 03:27:12;;;;;;;5.15;1.25;;;4.70;99.90;;;2.94;100.00;99447.69;2568669;30;138089;-40
2021/12/02 03:29:40;;;;;;;;;;;4.70;99.90;;;2.90;100.00;99441.00;2568520;30;139044;-40
2021/12/02 03:32:10;;;;;;;4.35;1.20;;;4.70;99.90;;;2.86;100.00;99453.19;2567147;30;137018;-40
2021/12/02 03:34:40;;;;;;;6.20;1.00;;;4.60;99.90;;;2.83;100.00;99448.19;2568111;30;138111;-40
2021/12/02 03:37:08;;;;;;;5.43;0.80;;;4.60;99.90;;;2.94;100.00;99454.91;2566219;30;137490;-40
2021/12/02 03:39:37;;;;;;;5.53;1.27;;;4.60;99.90;;;2.85;100.00;99462.31;2568227;30;138218;-40
2021/12/02 03:42:06;;;;;;;3.00;1.13;;;4.60;99.90;;;2.96;100.00;99464.47;2566964;30;137033;-40
2021/12/02 03:44:33;;;;;;;5.20;1.00;;;4.70;99.90;;;2.96;100.00;99469.03;2567941;30;138184;-39
2021/12/02 03:47:02;;;;;;;5.70;1.20;;;4.70;99.90;;;3.01;100.00;99467.41;2565996;30;137633;-40
2021/12/02 03:49:30;;;;;;;2.03;1.20;;;4.70;99.90;;;3.00;100.00;99463.06;2567792;30;138559;-40
2021/12/02 03:51:58;;;;;;;4.88;1.35;;;4.70;99.90;;;2.97;100.00;99460.75;2564883;30;138242;-40
2021/12/02 03:54:25;;;;;;;;;;;4.70;99.90;;;2.95;100.00;99462.81;2566979;30;138765;-40
2021/12/02 03:56:52;;;;;;;4.35;1.52;;;4.70;99.90;;;2.92;100.00;99456.97;2567064;30;136665;-40
2021/12/02 03:59:20;;;;;;;3.38;1.10;;;4.70;99.90;;;2.82;100.00;99460.00;2567791;30;139086;-40
2021/12/02 04:01:48;;;;;;;3.33;1.35;;;4.60;99.90;;;2.71;100.00;99456.81;2566432;30;137641;-40
2021/12/02 04:04:15;;;;;;;2.42;0.90;;;4.50;99.90;;;2.70;100.00;99460.53;2567390;30;139136;-40
2021/12/02 04:06:43;;;;;;;;;;;4.50;99.90;;;2.66;100.00;99463.81;2568907;30;137558;-40
2021/12/02 04:09:19;;;;;;;2.13;0.90;;;4.40;99.90;;;2.62;100.00;99463.34;2567750;30;138293;-40
2021/12/02 04:11:57;;;;;;;4.53;1.25;;;4.40;99.90;;;2.53;100.00;99461.84;2565865;30;137717;-40
2021/12/02 04:14:30;;;;;;;;;;;4.40;99.90;;;2.52;100.00;99469.09;2568417;30;138558;-40
2021/12/02 04:17:05;;;;;;;5.50;0.90;;;4.30;99.90;;;2.57;100.00;99476.56;2564888;30;136778;-40
2021/12/02 04:19:34;;;;;;;2.25;0.90;;;4.30;99.90;;;2.55;100.00;99473.25;2568092;30;139025;-40
2021/12/02 04:22:01;;;;;;;4.15;0.82;;;4.30;99.90;;;2.53;100.00;99473.44;2567219;30;137431;-39
2021/12/02 04:24:29;;;;;;;5.57;1.08;;;4.30;99.90;;;2.53;100.00;99470.75;2567891;30;137125;-40
2021/12/02 04:26:57;;;;;;;4.28;0.93;;;4.30;99.90;;;2.54;100.00;99471.56;2568900;30;137038;-40
2021/12/02 04:29:25;;;;;;;4.43;0.85;;;4.30;99.90;;;2.52;100.00;99463.72;2568897;30;138311;-40
2021/12/02 04:31:53;;;;;;;;;;;4.30;99.90;;;2.54;100.00;99472.44;2568983;30;137102;-40
2021/12/02 04:34:21;;;;;;;2.38;0.85;;;4.30;99.90;;;2.53;100.00;99476.16;2567993;30;138087;-40
2021/12/02 04:36:49;;;;;;;3.50;0.75;;;4.30;99.90;;;2.52;100.00;99481.72;2565246;30;137306;-40
2021/12/02 04:39:19;;;;;;;4.93;1.08;;;4.30;99.90;;;2.53;100.00;99496.84;2566410;30;138109;-40
2021/12/02 04:41:47;;;;;;;4.38;0.88;;;4.30;99.90;;;2.59;100.00;99501.44;2567433;30;137316;-40
2021/12/02 04:44:18;;;;;;;2.53;0.88;;;4.30;99.90;;;2.56;100.00;99504.53;2568586;30;138178;-40
2021/12/02 04:46:51;;;;;;;2.90;0.60;;;4.30;99.90;;;2.46;100.00;99495.94;2565612;30;136962;-40
2021/12/02 04:49:19;;;;;;;2.63;0.50;;;4.30;99.90;;;2.43;100.00;99498.00;2566611;30;137926;-39
2021/12/02 04:51:47;;;;;;;1.90;0.50;;;4.20;99.90;;;2.33;100.00;99494.78;2567928;30;138282;-39
2021/12/02 04:54:14;;;;;;;1.65;0.47;;;4.10;99.90;;;2.24;100.00;99488.66;2565586;30;138270;-40
2021/12/02 04:56:42;;;;;;;2.10;0.38;;;4.10;99.90;;;2.12;100.00;99491.06;2568247;30;138149;-40
2021/12/02 04:59:09;;;;;;;1.70;0.60;;;4.00;99.90;;;2.06;100.00;99490.97;2569456;30;138900;-40
2021/12/02 05:01:37;;;;;;;3.13;0.32;;;3.90;99.90;;;1.99;100.00;99496.28;2568293;30;137349;-40
2021/12/02 05:04:05;;;;;;;2.63;0.38;;;3.80;99.90;;;1.99;100.00;99491.75;2566972;30;139120;-40
2021/12/02 05:06:32;;;;;;;3.05;0.60;;;3.80;99.90;;;1.98;100.00;99491.91;2568236;30;138307;-40
2021/12/02 05:09:00;;;;;;;1.98;0.30;;;3.80;99.90;;;1.95;100.00;99490.41;2568243;30;138530;-40
2021/12/02 05:11:27;;;;;;;1.73;0.50;;;3.80;99.90;;;1.90;100.00;99495.53;2568291;30;138066;-40
2021/12/02 05:13:54;;;;;;;2.00;0.57;;;3.70;99.90;;;1.90;100.00;99500.09;2568644;30;138273;-40
2021/12/02 05:16:22;;;;;;;1.50;0.60;;;3.70;99.90;;;1.90;100.00;99495.53;2568545;30;137484;-40
2021/12/02 05:18:50;;;;;;;3.08;0.77;;;3.70;99.90;;;1.89;100.00;99495.75;2568762;30;138201;-40
2021/12/02 05:21:18;;;;;;;2.47;0.85;;;3.70;99.90;;;1.90;100.00;99487.47;2568221;30;136925;-40
2021/12/02 05:23:49;;;;;;;1.45;0.80;;;3.70;99.90;;;1.94;100.00;99493.31;2566837;30;139275;-40
2021/12/02 05:26:16;;;;;;;2.47;0.90;;;3.70;99.90;;;1.89;100.00;99485.81;2568241;30;137320;-40
2021/12/02 05:28:44;;;;;;;2.58;1.05;;;3.70;99.90;;;1.86;100.00;99483.50;2566357;30;139153;-40
2021/12/02 05:31:11;;;;;;;3.47;1.10;;;3.70;99.90;;;1.86;100.00;99492.41;2569107;30;137514;-40
2021/12/02 05:33:39;;;;;;;2.72;1.33;;;3.60;99.90;;;1.85;100.00;99488.03;2564724;30;138144;-40
2021/12/02 05:36:06;;;;;;;4.20;1.33;;;3.70;99.90;;;1.83;100.00;99486.56;2568098;30;137147;-40
2021/12/02 05:38:34;;;;;;;3.22;1.60;;;3.60;99.90;;;1.79;100.00;99488.78;2569145;30;138460;-40
2021/12/02 05:41:03;;;;;;;3.17;1.50;;;3.60;99.90;;;1.81;100.00;99494.81;2568584;30;137373;-40
2021/12/02 05:43:31;;;;;;;2.88;1.48;;;3.60;99.90;;;1.81;100.00;99489.41;2569002;30;138997;-40
2021/12/02 05:45:58;;;;;;;3.92;2.03;;;3.60;99.90;;;1.80;100.00;99481.56;2567801;30;137376;-40
2021/12/02 05:48:26;;;;;;;4.25;1.88;;;3.60;99.90;;;1.84;100.00;99489.03;2567859;30;137505;-40
2021/12/02 05:50:53;;;;;;;3.83;2.05;;;3.60;99.90;;;1.83;100.00;99487.38;2568844;30;137072;-40
2021/12/02 05:53:21;;;;;;;5.05;2.30;;;3.60;99.90;;;1.84;100.00;99486.34;2568358;30;138900;-40
2021/12/02 05:55:49;;;;;;;5.22;2.20;;;3.70;99.90;;;1.90;100.00;99483.97;2567842;30;137649;-40
2021/12/02 05:58:16;;;;;;;4.88;2.35;;;3.60;99.90;;;1.91;100.00;99488.31;2567586;30;137107;-40
2021/12/02 06:00:44;;;;;;;5.65;2.10;;;3.70;99.90;;;1.97;100.00;99487.56;2568495;30;138409;-40
2021/12/02 06:03:12;;;;;;;5.07;2.33;;;3.70;99.90;;;1.93;100.00;99503.22;2567959;30;138358;-40
2021/12/02 06:05:39;;;;;;;5.03;1.90;;;3.70;99.90;;;1.92;100.00;99511.50;2566785;30;136835;-40
2021/12/02 06:08:07;;;;;;;5.95;2.63;;;3.70;99.90;;;1.97;100.00;99509.91;2568207;30;138501;-40
2021/12/02 06:10:34;;;;;;;5.47;2.40;;;3.70;99.90;;;2.00;100.00;99508.69;2568557;30;137608;-40
2021/12/02 06:13:02;;;;;;;5.15;2.35;;;3.70;99.90;;;2.03;100.00;99502.94;2568309;30;138329;-40
2021/12/02 06:15:30;;;;;;;4.72;2.05;;;3.80;99.90;;;1.99;100.00;99507.03;2567890;30;137431;-40
2021/12/02 06:17:57;;;;;;;7.07;2.40;;;3.70;99.90;;;2.01;100.00;99513.06;2567157;30;138254;-40
2021/12/02 06:20:25;;;;;;;5.93;2.65;;;3.80;99.90;;;1.99;100.00;99520.47;2568412;30;136845;-40
2021/12/02 06:22:52;;;;;;;5.28;2.35;;;3.80;99.90;;;1.98;100.00;99510.75;2568106;30;138168;-40
2021/12/02 06:27:52;;;;;;;7.40;2.47;;;3.70;99.90;;;1.95;100.00;99520.00;2565785;30;138387;-40
2021/12/02 06:30:24;;;;;;;7.43;2.67;;;3.70;99.90;;;1.96;100.00;99518.16;2566713;30;138462;-40
2021/12/02 06:32:52;;;;;;;5.65;2.35;;;3.70;99.90;;;1.95;100.00;99528.09;2566737;30;138420;-40
2021/12/02 06:35:21;;;;;;;7.50;2.30;;;3.70;99.90;;;2.00;100.00;99531.06;2568277;30;138245;-40
2021/12/02 06:37:49;;;;;;;5.85;2.08;;;3.80;99.90;;;2.00;100.00;99538.28;2567950;30;137319;-40
2021/12/02 06:40:17;;;;;;;5.10;2.20;;;3.70;99.90;;;2.03;100.00;99537.91;2568607;30;137529;-40
2021/12/02 06:42:45;;;;;;;6.65;2.30;;;3.80;99.90;;;2.05;100.00;99548.50;2568359;30;137131;-40
2021/12/02 06:45:14;;;;;;;5.25;1.85;;;3.80;99.90;;;2.07;100.00;99552.66;2567410;30;137481;-40
2021/12/02 06:47:46;;;;;;;6.22;2.08;;;3.80;99.90;;;2.09;100.00;99555.16;2568766;30;137126;-40
2021/12/02 06:50:18;;;;;;;3.65;2.00;;;3.80;99.90;;;2.15;100.00;99555.25;2567589;30;138346;-40
2021/12/02 06:52:51;;;;;;;7.07;1.67;;;3.80;99.90;;;2.13;100.00;99551.91;2566479;30;138779;-40
2021/12/02 06:55:20;;;;;;;4.95;1.90;;;3.90;99.90;;;2.13;100.00;99557.31;2566235;30;138252;-40
2021/12/02 06:57:49;;;;;;;5.40;2.00;;;3.90;99.90;;;2.08;100.00;99553.50;2568297;30;138490;-40
2021/12/02 07:00:19;;;;;;;7.55;2.25;;;3.90;99.90;;;2.13;100.00;99551.06;2566775;30;137777;-40
2021/12/02 07:02:48;;;;;;;6.70;1.92;;;3.90;99.90;;;2.09;100.00;99563.25;2568246;30;138287;-40
2021/12/02 07:05:21;;;;;;;4.07;2.05;;;3.80;99.90;;;2.05;100.00;99557.38;2566382;30;137923;-40
2021/12/02 07:07:49;;;;;;;7.43;2.13;;;3.80;99.90;;;2.08;100.00;99562.38;2568267;30;137730;-40
2021/12/02 07:10:22;;;;;;;7.28;2.30;;;3.80;99.90;;;2.01;100.00;99566.84;2567983;30;136781;-40
2021/12/02 07:12:56;;;;;;;4.18;2.10;;;3.80;99.90;;;1.95;100.00;99562.25;2566313;30;138392;-39
2021/12/02 07:15:42;;;;;;;7.32;2.40;;;3.80;99.90;;;1.99;100.00;99576.97;2566185;30;137559;-39
2021/12/02 07:18:13;;;;;;;5.30;2.00;;;3.80;99.90;;;1.90;100.00;99567.34;2567654;30;138370;-40
2021/12/02 07:20:45;;;;;;;3.55;1.80;;;3.70;99.90;;;1.95;100.00;99583.75;2564716;30;137866;-40
2021/12/02 07:23:19;;;;;;;4.40;1.85;;;3.70;99.90;;;1.93;100.00;99591.19;2567827;30;138572;-40
2021/12/02 07:25:48;;;;;;;5.55;2.13;;;3.70;99.90;;;1.99;100.00;99598.50;2569405;30;137270;-40
2021/12/02 07:28:17;;;;;;;5.05;2.10;;;3.70;99.90;;;2.03;100.00;99597.09;2568491;30;139066;-40
2021/12/02 07:30:52;;;;;;;6.85;2.03;;;3.70;99.90;;;1.97;100.00;99601.38;2568652;30;137638;-40
2021/12/02 07:33:22;;;;;;;5.57;2.28;;;3.70;99.90;;;1.97;100.00;99604.06;2569082;30;137196;-39
2021/12/02 07:35:50;;;;;;;3.50;1.90;;;3.70;99.90;;;2.04;100.00;99612.22;2568116;30;137293;-40
2021/12/02 07:38:19;;;;;;;4.95;2.30;;;3.80;99.90;;;2.00;100.00;99610.94;2568297;30;138376;-40
2021/12/02 07:40:46;;;;;;;6.40;2.30;;;3.70;99.90;;;2.04;100.00;99616.78;2568579;30;137082;-40
2021/12/02 07:43:14;;;;;;;3.72;1.67;;;3.80;99.90;;;2.02;100.00;99614.28;2568404;30;138418;-40
2021/12/02 07:45:42;;;;;;;3.83;2.13;;;3.80;99.90;;;2.01;100.00;99618.84;2566865;30;136776;-40
2021/12/02 07:48:10;;;;;;;4.22;2.05;;;3.80;99.90;;;1.99;100.00;99611.94;2567165;30;138442;-40
2021/12/02 07:50:37;;;;;;;4.57;1.75;;;3.70;99.90;;;1.97;100.00;99612.13;2569064;30;136729;-40
2021/12/02 07:53:07;;;;;;;5.13;2.10;;;3.70;99.90;;;1.95;100.00;99622.25;2567600;30;137380;-40
2021/12/02 07:55:39;;;;;;;2.78;1.88;;;3.70;99.90;;;1.98;100.00;99629.13;2567366;30;137367;-40
2021/12/02 07:58:10;;;;;;;4.25;1.75;;;3.70;99.90;;;1.97;100.00;99633.66;2567312;30;138319;-40
2021/12/02 08:00:40;;;;;;;5.32;1.75;;;3.70;99.90;;;1.96;100.00;99639.22;2567769;30;138411;-40
2021/12/02 08:03:11;;;;;;;3.75;1.90;;;3.70;99.90;;;1.96;100.00;99639.22;2569170;30;140770;-40
2021/12/02 08:05:41;;;;;;;4.13;1.95;;;3.70;99.90;;;1.97;100.00;99643.59;2568826;30;137194;-40
2021/12/02 08:08:11;;;;;;;3.28;1.52;;;3.70;99.90;;;1.99;100.00;99647.78;2568174;30;138415;-40
2021/12/02 08:10:39;;;;;;;3.85;1.88;;;3.70;99.90;;;2.03;100.00;99648.22;2567235;30;136937;-40
2021/12/02 08:13:06;;;;;;;4.43;1.65;;;3.70;99.90;;;2.00;100.00;99649.44;2567346;30;138926;-40
2021/12/02 08:15:34;;;;;;;4.53;1.70;;;3.80;99.90;;;2.04;100.00;99655.28;2566485;30;136838;-40
2021/12/02 08:18:02;;;;;;;;;;;3.80;99.90;;;2.04;100.00;99649.88;2568324;30;137941;-40
2021/12/02 08:20:30;;;;;;;3.13;1.63;;;3.80;99.90;;;2.09;100.00;99669.00;2568874;30;137058;-40
2021/12/02 08:23:00;;;;;;;3.97;1.60;;;3.80;99.90;;;2.09;100.00;99669.00;2568407;30;137244;-39
2021/12/02 08:25:31;;;;;;;5.35;2.35;;;3.80;99.90;;;2.11;100.00;99666.97;2567928;30;137447;-39
2021/12/02 08:28:00;;;;;;;2.70;1.52;;;3.80;99.90;;;2.07;100.00;99664.84;2565824;30;139338;-40
2021/12/02 08:30:33;;;;;;;7.10;2.88;;;3.80;99.90;;;2.02;100.00;99657.31;2566320;30;137227;-40
2021/12/02 08:33:02;;;;;;;6.60;1.80;;;3.80;99.90;;;2.12;100.00;99673.19;2566922;30;138530;-40
2021/12/02 08:35:31;;;;;;;4.43;1.42;;;3.80;99.90;;;2.07;100.00;99676.44;2565047;30;137543;-40
2021/12/02 08:38:06;;;;;;;5.70;1.92;;;3.80;99.90;;;2.04;100.00;99682.19;2568460;30;137818;-40
2021/12/02 08:40:35;;;;;;;6.80;1.98;;;3.80;99.90;;;2.01;100.00;99691.47;2568752;30;136942;-40
2021/12/02 08:43:12;;;;;;;5.65;1.45;;;3.80;99.90;;;2.04;100.00;99687.56;2566076;30;137783;-40
2021/12/02 08:45:43;;;;;;;2.85;1.30;;;3.80;99.90;;;2.05;100.00;99700.00;2568539;30;137460;-40
2021/12/02 08:48:12;;;;;;;5.15;2.15;;;3.80;99.90;;;2.09;100.00;99697.78;2569607;30;138163;-40
2021/12/02 08:50:40;;;;;;;5.28;1.85;;;3.80;99.90;;;2.17;100.00;99707.63;2566841;30;137767;-40
2021/12/02 08:53:10;;;;;;;3.80;1.70;;;3.90;99.90;;;2.15;100.00;99703.28;2568647;30;138299;-40
2021/12/02 08:55:38;;;;;;;3.60;1.48;;;3.90;99.90;;;2.22;100.00;99710.59;2568627;30;137439;-40
2021/12/02 08:58:09;;;;;;;4.15;1.20;;;3.90;99.90;;;2.24;100.00;99711.25;2568459;30;138237;-40
2021/12/02 09:00:40;;;;;;;4.30;1.95;;;3.90;99.90;;;2.25;100.00;99718.28;2568355;30;138390;-40
2021/12/02 09:03:15;;;;;;;4.72;1.90;;;3.90;99.90;;;2.33;100.00;99725.44;2568494;30;138624;-40
2021/12/02 09:05:44;;;;;;;9.70;4.15;;;4.00;99.90;;;2.32;100.00;99726.47;2568591;30;137298;-40
2021/12/02 09:08:12;;;;;;;4.10;1.70;;;4.00;99.90;;;2.29;100.00;99724.97;2569328;30;137349;-40
2021/12/02 09:10:40;;;;;;;4.60;1.40;;;4.00;99.90;;;2.35;100.00;99729.59;2569338;30;136910;-40
2021/12/02 09:13:12;;;;;;;3.45;1.50;;;4.00;99.90;;;2.36;100.00;99736.66;2567021;30;139091;-40
2021/12/02 09:15:40;;;;;;;3.80;1.90;;;4.10;99.90;;;2.36;100.00;99736.66;2566152;30;137216;-36
2021/12/02 09:18:08;;;;;;;6.35;2.75;;;4.10;99.90;;;2.39;100.00;99743.53;2568310;30;138349;-35
2021/12/02 09:20:37;;;;;;;4.65;1.75;;;4.10;99.90;;;2.42;100.00;99744.03;2566964;30;138386;-35
2021/12/02 09:23:05;;;;;;;4.68;1.92;;;4.10;99.90;;;2.44;100.00;99744.66;2568805;30;137065;-35
2021/12/02 09:25:33;;;;;;;2.70;1.52;;;4.10;99.90;;;2.41;100.00;99747.75;2567906;30;137582;-35
2021/12/02 09:28:01;;;;;;;2.45;1.40;;;4.10;99.90;;;2.34;100.00;99749.47;2568801;30;138992;-36
2021/12/02 09:30:29;;;;;;;3.00;1.50;;;4.10;99.90;;;2.36;100.00;99749.31;2568460;30;136961;-36
2021/12/02 09:32:56;;;;;;;2.47;1.48;;;4.10;99.90;;;2.33;100.00;99758.56;2566693;30;138396;-36
2021/12/02 09:35:25;;;;;;;2.40;1.45;;;4.10;99.90;;;2.28;100.00;99750.22;2567035;30;137659;-36
2021/12/02 09:37:52;;;;;;;3.17;1.75;;;4.00;99.90;;;2.32;100.00;99748.00;2567281;30;137757;-35
2021/12/02 09:40:21;;;;;;;3.42;1.88;;;4.00;99.90;;;2.40;100.00;99753.28;2568168;30;137227;-36
2021/12/02 09:42:48;;;;;;;4.35;1.92;;;4.10;99.90;;;2.41;100.00;99757.66;2569499;30;137353;-35
2021/12/02 09:45:16;;;;;;;5.88;2.65;;;4.10;99.90;;;2.50;100.00;99758.41;2567752;30;138328;-35
2021/12/02 09:47:47;;;;;;;3.75;2.42;;;4.10;99.90;;;2.48;100.00;99757.75;2567292;30;138197;-36
2021/12/02 09:50:33;;;;;;;4.63;2.72;;;4.20;99.90;;;2.52;100.00;99754.53;2565254;30;137319;-35
2021/12/02 09:53:09;;;;;;;5.60;2.33;;;4.20;99.90;;;2.61;100.00;99759.81;2568966;30;138215;-35
2021/12/02 09:55:47;;;;;;;5.75;2.47;;;4.30;99.90;;;2.61;100.00;99767.88;2567773;30;137864;-35
2021/12/02 09:58:24;;;;;;;3.55;2.10;;;4.30;99.90;;;2.72;99.23;99775.47;2569148;30;139029;-35
2021/12/02 10:01:07;;;;;;;5.38;2.45;;;4.30;99.90;;;2.82;100.00;99762.56;2568388;30;137215;-35
2021/12/02 10:03:38;;;;;;;4.30;2.33;;;4.40;99.90;;;2.99;100.00;99770.44;2567640;30;138089;-35
2021/12/02 10:06:20;;;;;;;4.25;2.47;;;4.60;99.90;;;3.09;100.00;99762.91;2566824;30;137950;-36
2021/12/02 10:09:08;;;;;;;5.30;2.50;;;4.60;99.90;;;3.16;100.00;99773.75;2567880;30;139027;-36
2021/12/02 10:11:54;;;;;;;6.65;2.60;;;4.70;99.90;;;3.22;99.68;99778.41;2569773;30;138322;-35
2021/12/02 10:14:37;;;;;;;6.05;2.97;;;4.80;99.90;;;3.13;96.64;99766.03;2568019;30;139279;-35
2021/12/02 10:17:28;;;;;;;5.57;2.30;;;4.80;99.90;;;3.07;97.16;99772.19;2568162;30;137872;-34
2021/12/02 10:23:34;;;;;;;5.43;2.20;;;4.80;99.90;;;3.06;96.81;99771.38;2567729;30;137613;-36
2021/12/02 10:26:05;;;;;;;3.45;1.90;;;4.70;99.90;;;3.11;98.06;99778.88;2568703;30;138343;-35
2021/12/02 10:28:42;;;;;;;4.32;2.40;;;4.70;99.90;;;3.15;97.91;99788.25;2568485;30;136841;-36
2021/12/02 10:31:21;;;;;;;7.53;2.25;;;4.80;99.90;;;3.19;96.71;99788.72;2567024;30;138020;-36
2021/12/02 10:33:53;;;;;;;;;;;4.80;99.90;;;3.02;94.21;99784.38;2568659;30;137570;-35
2021/12/02 10:36:39;;;;;;;4.25;2.17;;;4.70;99.90;;;2.95;94.70;99790.69;2566892;30;138164;-35
2021/12/02 10:39:18;;;;;;;6.03;2.20;;;4.70;99.90;;;2.97;95.82;99784.13;2568424;30;138354;-36
2021/12/02 10:42:08;;;;;;;4.65;2.08;;;4.60;99.90;;;2.97;96.17;99788.66;2566153;30;138111;-36
2021/12/02 10:44:40;;;;;;;2.97;1.90;;;4.60;99.90;;;3.02;97.11;99781.69;2565014;30;136801;-35
2021/12/02 10:47:15;;;;;;;5.53;1.80;;;4.70;99.90;;;3.06;95.42;99790.25;2568269;30;138201;-36
2021/12/02 10:50:07;;;;;;;5.65;1.75;;;4.70;99.90;;;3.07;94.22;99786.50;2568691;30;136865;-36
2021/12/02 10:52:37;;;;;;;4.55;1.92;;;4.70;99.90;;;3.08;93.31;99787.34;2568381;30;137859;-36